createdAt,value
2023-01-05T00:03:37.722Z,9.1
2023-01-05T00:09:21.949Z,9.2
2023-01-05T00:14:57.337Z,9.2
2023-01-05T00:20:48.259Z,9.2
2023-01-05T00:26:26.320Z,9.2
2023-01-05T00:32:02.565Z,9.2
2023-01-05T00:37:39.707Z,9.1
2023-01-05T00:43:15.493Z,9.1
2023-01-05T00:48:50.338Z,9
2023-01-05T00:54:26.724Z,9
2023-01-05T01:00:02.756Z,8.9
2023-01-05T01:05:37.928Z,8.9
2023-01-05T01:11:18.953Z,8.8
2023-01-05T01:17:06.271Z,8.7
2023-01-05T01:22:51.370Z,8.8
2023-01-05T01:28:26.393Z,8.8
2023-01-05T01:34:09.419Z,8.8
2023-01-05T01:39:47.991Z,8.8
2023-01-05T01:45:26.835Z,8.8
2023-01-05T01:51:07.793Z,8.7
2023-01-05T01:56:44.734Z,8.7
2023-01-05T02:02:21.393Z,8.7
2023-01-05T02:07:58.525Z,8.7
2023-01-05T02:13:33.613Z,8.7
2023-01-05T02:19:30.534Z,8.7
2023-01-05T02:25:22.945Z,8.7
2023-01-05T02:31:22.873Z,8.8
2023-01-05T02:37:14.651Z,8.8
2023-01-05T02:42:52.405Z,8.9
2023-01-05T02:48:27.979Z,9
2023-01-05T02:54:24.338Z,9
2023-01-05T02:59:59.663Z,9
2023-01-05T03:05:43.404Z,9
2023-01-05T03:11:18.243Z,9
2023-01-05T03:16:54.953Z,9
2023-01-05T03:22:30.331Z,9.1
2023-01-05T03:28:05.623Z,9.1
2023-01-05T03:33:41.058Z,9.1
2023-01-05T03:39:17.467Z,9.1
2023-01-05T03:45:04.886Z,9.2
2023-01-05T03:50:46.219Z,9.3
2023-01-05T03:56:44.730Z,9.3
2023-01-05T04:02:28.897Z,9.3
2023-01-05T04:08:39.574Z,9.3
2023-01-05T04:14:18.104Z,9.4
2023-01-05T04:19:53.627Z,9.5
2023-01-05T04:25:49.798Z,9.5
2023-01-05T04:31:25.320Z,9.6
2023-01-05T04:37:00.869Z,9.6
2023-01-05T04:42:44.361Z,9.7
2023-01-05T04:48:24.413Z,9.7
2023-01-05T04:54:06.974Z,9.8
2023-01-05T04:59:46.333Z,9.9
2023-01-05T05:05:28.285Z,9.9
2023-01-05T05:11:08.813Z,10
2023-01-05T05:17:33.652Z,10
2023-01-05T05:23:20.511Z,10.1
2023-01-05T05:29:21.198Z,10.2
2023-01-05T05:34:56.666Z,10.2
2023-01-05T05:40:32.529Z,10.2
2023-01-05T05:46:13.414Z,10.3
2023-01-05T05:51:50.039Z,10.3
2023-01-05T05:57:30.599Z,10.4
2023-01-05T06:03:05.723Z,10.5
2023-01-05T06:08:43.103Z,10.5
2023-01-05T06:15:05.391Z,10.6
2023-01-05T06:20:47.392Z,10.7
2023-01-05T06:26:37.149Z,10.7
2023-01-05T06:32:21.241Z,10.8
2023-01-05T06:37:56.212Z,10.8
2023-01-05T06:43:42.918Z,10.8
2023-01-05T06:49:18.391Z,10.7
2023-01-05T06:54:53.372Z,10.6
2023-01-05T07:00:46.830Z,10.6
2023-01-05T07:06:22.808Z,10.5
2023-01-05T07:12:04.600Z,10.5
2023-01-05T07:17:39.897Z,10.5
2023-01-05T07:23:14.990Z,10.5
2023-01-05T07:29:00.259Z,10.6
2023-01-05T07:35:21.964Z,10.7
2023-01-05T07:41:09.939Z,10.7
2023-01-05T07:46:45.343Z,10.8
2023-01-05T07:52:49.091Z,10.8
2023-01-05T07:58:29.943Z,10.7
2023-01-05T08:04:14.162Z,10.2
2023-01-05T08:09:56.807Z,9.6
2023-01-05T08:15:32.292Z,9.7
2023-01-05T08:21:08.280Z,10
2023-01-05T08:26:43.308Z,10.1
2023-01-05T08:32:20.452Z,10.1
2023-01-05T08:37:56.390Z,10.3
2023-01-05T08:43:32.903Z,10.3
2023-01-05T08:49:08.002Z,10.3
2023-01-05T08:54:43.486Z,10.4
2023-01-05T09:00:19.198Z,10.4
2023-01-05T09:05:54.722Z,10.9
2023-01-05T09:11:30.158Z,11.2
2023-01-05T09:17:07.947Z,11.4
2023-01-05T09:22:46.142Z,11.8
2023-01-05T09:28:21.516Z,11.9
2023-01-05T09:33:57.847Z,12
2023-01-05T09:39:33.303Z,12.3
2023-01-05T09:45:08.512Z,12.6
2023-01-05T09:50:45.940Z,13
2023-01-05T09:56:58.792Z,13.4
2023-01-05T10:02:46.707Z,13.8
2023-01-05T10:08:23.516Z,13.6
2023-01-05T10:14:00.551Z,13.7
2023-01-05T10:19:35.988Z,13.3
2023-01-05T10:25:12.708Z,12.9
2023-01-05T10:30:48.474Z,12.7
2023-01-05T10:36:49.113Z,13.4
2023-01-05T10:42:50.931Z,14.3
2023-01-05T10:48:26.862Z,14.9
2023-01-05T10:54:03.337Z,14.8
2023-01-05T10:59:40.120Z,14.9
2023-01-05T11:05:16.579Z,15.2
2023-01-05T11:10:54.812Z,15.3
2023-01-05T11:16:31.116Z,15.6
2023-01-05T11:22:06.701Z,15.7
2023-01-05T11:27:42.225Z,16.1
2023-01-05T11:33:25.376Z,16.4
2023-01-05T11:39:01.631Z,16.3
2023-01-05T11:44:37.484Z,16.2
2023-01-05T11:50:13.246Z,16
2023-01-05T11:55:50.821Z,16.1
2023-01-05T12:01:26.427Z,16.3
2023-01-05T12:07:08.918Z,16.6
2023-01-05T12:12:45.852Z,16.6
2023-01-05T12:18:20.952Z,16.9
2023-01-05T12:23:57.412Z,17.3
2023-01-05T12:30:43.625Z,17.8
2023-01-05T12:39:49.856Z,17.9
2023-01-05T12:45:31.417Z,17.7
2023-01-05T12:51:07.660Z,17.6
2023-01-05T12:56:44.569Z,17.9
2023-01-05T13:02:20.966Z,18
2023-01-05T13:07:59.193Z,17.5
2023-01-05T13:13:35.561Z,18.2
2023-01-05T13:19:24.144Z,18.6
2023-01-05T13:24:59.323Z,18.7
2023-01-05T13:30:38.721Z,18.1
2023-01-05T13:36:18.222Z,18.8
2023-01-05T13:41:53.661Z,18.9
2023-01-05T13:47:30.836Z,18.8
2023-01-05T13:59:00.610Z,18.7
2023-01-05T14:04:36.643Z,18.9
2023-01-05T14:10:12.526Z,19
2023-01-05T14:15:47.963Z,19.2
2023-01-05T14:21:23.808Z,19.4
2023-01-05T14:26:59.865Z,20
2023-01-05T14:32:44.210Z,21.7
2023-01-05T14:38:19.899Z,19.2
2023-01-05T14:43:55.475Z,17.7
2023-01-05T14:49:39.678Z,17
2023-01-05T14:55:37.021Z,16.1
2023-01-05T15:01:17.010Z,15.4
2023-01-05T15:06:53.382Z,15.1
2023-01-05T15:12:38.407Z,14.8
2023-01-05T15:18:14.093Z,14.6
2023-01-05T15:23:50.072Z,14.2
2023-01-05T15:29:25.923Z,14.1
2023-01-05T15:35:03.079Z,13.9
2023-01-05T15:40:38.151Z,13.9
2023-01-05T15:46:15.144Z,13.6
2023-01-05T15:51:51.076Z,13.4
2023-01-05T15:57:25.991Z,13.3
2023-01-05T16:03:02.790Z,13.3
2023-01-05T16:08:38.666Z,13
2023-01-05T16:14:14.480Z,12.9
2023-01-05T16:19:50.322Z,12.7
2023-01-05T16:25:27.659Z,12.7
2023-01-05T16:31:02.802Z,12.5
2023-01-05T16:36:39.069Z,12.4
2023-01-05T16:42:16.291Z,12.3
2023-01-05T16:47:51.230Z,12.1
2023-01-05T16:53:26.925Z,12
2023-01-05T16:59:03.079Z,11.9
2023-01-05T17:04:38.337Z,11.7
2023-01-05T17:10:14.256Z,11.6
2023-01-05T17:15:50.462Z,11.6
2023-01-05T17:21:25.916Z,11.5
2023-01-05T17:27:02.291Z,11.4
2023-01-05T17:32:39.658Z,11.2
2023-01-05T17:38:14.710Z,11.3
2023-01-05T17:43:50.437Z,12.2
2023-01-05T17:55:03.430Z,12.4
2023-01-05T18:00:39.011Z,12.4
2023-01-05T18:06:19.485Z,12.4
2023-01-05T18:11:56.161Z,12.5
2023-01-05T18:17:32.119Z,12.5
2023-01-05T18:23:47.297Z,12.5
2023-01-05T18:29:28.121Z,12.5
2023-01-05T18:35:20.317Z,12.5
2023-01-05T18:41:05.740Z,12.5
2023-01-05T18:46:40.689Z,12.4
2023-01-05T18:52:16.856Z,12.3
2023-01-05T18:57:53.250Z,12.3
2023-01-05T19:03:29.439Z,12.3
2023-01-05T19:09:05.992Z,12.2
2023-01-05T19:14:48.170Z,12.2
2023-01-05T19:20:23.655Z,12.2
2023-01-05T19:26:00.849Z,12.1
2023-01-05T19:31:47.103Z,11.9
2023-01-05T19:37:24.183Z,11.8
2023-01-05T19:43:01.070Z,11.8
2023-01-05T19:48:37.219Z,11.7
2023-01-05T19:54:16.747Z,11.6
2023-01-05T20:00:13.539Z,11.6
2023-01-05T20:05:52.543Z,11.6
2023-01-05T20:11:31.633Z,11.6
2023-01-05T20:17:07.020Z,11.5
2023-01-05T20:22:42.819Z,11.3
2023-01-05T20:28:33.091Z,11.2
2023-01-05T20:34:08.686Z,11.2
2023-01-05T20:39:44.632Z,11.2
2023-01-05T20:45:20.546Z,11.1
2023-01-05T20:51:18.114Z,11
2023-01-05T20:56:55.281Z,10.8
2023-01-05T21:03:41.988Z,10.7
2023-01-05T21:09:18.263Z,10.6
2023-01-05T21:15:01.899Z,10.5
2023-01-05T21:20:36.881Z,10.4
2023-01-05T21:26:31.391Z,10.4
2023-01-05T21:32:07.901Z,10.3
2023-01-05T21:37:42.943Z,10.3
2023-01-05T21:43:28.228Z,10.3
2023-01-05T21:49:04.790Z,10.3
2023-01-05T21:54:40.019Z,10.2
2023-01-05T22:00:15.711Z,10.1
2023-01-05T22:05:53.605Z,10.1
2023-01-05T22:11:40.228Z,10.1
2023-01-05T22:17:15.431Z,10
2023-01-05T22:23:12.565Z,9.9
2023-01-05T22:28:52.581Z,9.8
2023-01-05T22:34:40.059Z,9.7
2023-01-05T22:40:36.707Z,9.8
2023-01-05T22:46:17.095Z,9.7
2023-01-05T22:51:53.211Z,9.7
2023-01-05T22:57:29.319Z,9.6
2023-01-05T23:03:29.550Z,9.6
2023-01-05T23:09:07.626Z,9.6
2023-01-05T23:14:43.944Z,9.6
2023-01-05T23:20:41.363Z,9.5
2023-01-05T23:26:19.360Z,9.4
2023-01-05T23:31:59.009Z,9.3
2023-01-05T23:37:33.949Z,9.3
2023-01-05T23:43:30.957Z,9.3
2023-01-05T23:49:56.189Z,9.2
2023-01-05T23:55:28.871Z,9.1
